Time;durP1;ratioP1;P1;durP2;ratioP2;P2;SDS_P1;SDS_P2;PMS_P1;PMS_P2;Temp;Humidity;BMP_temperature;BMP_pressure;BME280_temperature;BME280_humidity;BME280_pressure;Samples;Min_cycle;Max_cycle;Signal;HPM_P1;HPM_P2
2022/09/02 00:01:48;;;;;;;1.53;1.43;;;13.50;1.00;;;;;;4876643;29;20180;-51
2022/09/02 00:04:21;;;;;;;1.50;1.40;;;13.40;1.00;;;;;;4877374;29;20621;-56
2022/09/02 00:06:48;;;;;;;1.43;1.33;;;13.40;1.00;;;;;;4877179;29;20200;-56
2022/09/02 00:09:17;;;;;;;1.63;1.37;;;13.40;1.00;;;;;;4875542;29;20429;-55
2022/09/02 00:11:45;;;;;;;5.63;1.57;;;13.30;1.00;;;;;;4875406;29;20444;-50
2022/09/02 00:14:14;;;;;;;2.00;1.77;;;13.40;1.00;;;;;;4877139;29;20444;-50
2022/09/02 00:16:50;;;;;;;1.40;1.30;;;13.30;1.00;;;;;;4877492;29;20452;-50
2022/09/02 00:19:17;;;;;;;3.10;1.30;;;13.30;1.00;;;;;;4877362;29;20553;-51
2022/09/02 00:21:43;;;;;;;2.30;1.30;;;13.20;1.00;;;;;;4877564;29;20431;-52
2022/09/02 00:24:09;;;;;;;2.13;1.60;;;13.20;1.00;;;;;;4877472;29;20417;-50
2022/09/02 00:26:35;;;;;;;1.63;1.53;;;13.20;1.00;;;;;;4876905;29;20212;-50
2022/09/02 00:29:00;;;;;;;1.60;1.50;;;13.10;1.00;;;;;;4872760;29;20204;-51
2022/09/02 00:31:27;;;;;;;1.80;1.70;;;13.10;1.00;;;;;;4881111;29;20190;-50
2022/09/02 00:33:53;;;;;;;1.70;1.60;;;13.10;1.00;;;;;;4880523;29;20215;-51
2022/09/02 00:36:19;;;;;;;2.70;1.30;;;13.20;1.00;;;;;;4880812;29;20436;-50
2022/09/02 00:38:46;;;;;;;1.50;1.40;;;13.20;1.00;;;;;;4880267;29;20683;-50
2022/09/02 00:41:12;;;;;;;1.43;1.33;;;13.10;1.00;;;;;;4881246;29;20435;-50
2022/09/02 00:43:40;;;;;;;2.90;1.60;;;13.20;1.00;;;;;;4880287;29;20440;-51
2022/09/02 00:46:06;;;;;;;1.50;1.40;;;13.20;1.00;;;;;;4872292;29;20455;-51
2022/09/02 00:48:33;;;;;;;1.87;1.77;;;13.10;1.00;;;;;;4881132;29;20445;-50
2022/09/02 00:50:59;;;;;;;2.40;1.40;;;13.10;1.00;;;;;;4873868;29;20295;-50
2022/09/02 00:53:25;;;;;;;1.80;1.70;;;13.10;1.00;;;;;;4868183;29;22099;-50
2022/09/02 00:55:51;;;;;;;1.70;1.60;;;13.10;1.00;;;;;;4879079;29;20436;-51
2022/09/02 00:58:23;;;;;;;1.33;1.23;;;13.10;1.00;;;;;;4878748;29;20220;-51
2022/09/02 01:00:55;;;;;;;2.17;1.67;;;13.10;1.00;;;;;;4899134;29;20422;-50
2022/09/02 01:03:22;;;;;;;1.63;1.53;;;13.10;1.00;;;;;;4877056;29;20436;-51
2022/09/02 01:05:50;;;;;;;1.40;1.30;;;13.00;1.00;;;;;;4880673;29;20429;-59
2022/09/02 01:08:19;;;;;;;2.03;1.63;;;12.90;1.00;;;;;;4880536;29;20471;-50
2022/09/02 01:10:46;;;;;;;1.60;1.50;;;12.90;1.00;;;;;;4879594;29;20852;-51
2022/09/02 01:13:15;;;;;;;1.97;1.73;;;12.80;1.00;;;;;;4880570;29;20412;-50
2022/09/02 01:15:46;;;;;;;3.90;1.63;;;12.80;1.00;;;;;;4880336;29;20767;-50
2022/09/02 01:18:24;;;;;;;4.40;1.63;;;12.80;1.00;;;;;;4880125;29;20473;-51
2022/09/02 01:20:51;;;;;;;1.60;1.50;;;12.70;1.00;;;;;;4874564;29;20448;-50
2022/09/02 01:23:17;;;;;;;1.67;1.50;;;12.70;1.00;;;;;;4880570;29;20421;-51
2022/09/02 01:25:44;;;;;;;1.50;1.40;;;12.70;1.00;;;;;;4879468;29;20436;-51
2022/09/02 01:28:13;;;;;;;1.60;1.50;;;12.70;1.00;;;;;;4880340;29;20982;-50
2022/09/02 01:30:44;;;;;;;1.70;1.60;;;12.70;1.00;;;;;;4872979;29;20997;-50
2022/09/02 01:33:10;;;;;;;1.50;1.40;;;12.70;1.00;;;;;;4871456;29;20904;-50
2022/09/02 01:35:35;;;;;;;1.87;1.47;;;12.70;1.00;;;;;;4879883;29;20434;-50
2022/09/02 01:38:01;;;;;;;2.10;1.70;;;12.60;1.00;;;;;;4879884;29;20683;-50
2022/09/02 01:40:28;;;;;;;1.40;1.30;;;12.60;1.00;;;;;;4878405;29;20185;-50
2022/09/02 01:43:08;;;;;;;1.80;1.70;;;12.60;1.00;;;;;;4879900;29;20172;-50
2022/09/02 01:45:35;;;;;;;2.27;2.07;;;12.50;1.00;;;;;;4879381;29;20440;-50
2022/09/02 01:48:02;;;;;;;2.13;1.60;;;12.50;1.00;;;;;;4874128;29;20457;-50
2022/09/02 01:50:30;;;;;;;2.63;1.57;;;12.50;1.00;;;;;;4879125;29;20437;-50
2022/09/02 01:52:56;;;;;;;2.17;1.60;;;12.60;2.30;;;;;;4879786;29;20444;-51
2022/09/02 01:55:22;;;;;;;1.70;1.60;;;12.60;1.00;;;;;;4879531;29;20425;-51
2022/09/02 01:57:47;;;;;;;1.33;1.23;;;12.50;1.00;;;;;;4878962;29;20798;-50
2022/09/02 02:00:14;;;;;;;1.33;1.17;;;12.50;1.00;;;;;;4878845;29;20659;-50
2022/09/02 02:02:40;;;;;;;1.73;1.50;;;12.40;1.00;;;;;;4878298;29;20559;-50
2022/09/02 02:05:05;;;;;;;2.30;1.77;;;12.40;18.00;;;;;;4878897;29;20444;-50
2022/09/02 02:07:31;;;;;;;2.03;1.43;;;12.40;26.60;;;;;;4878613;29;20636;-51
2022/09/02 02:09:57;;;;;;;3.07;1.47;;;12.50;30.00;;;;;;4868672;29;20520;-50
2022/09/02 02:12:22;;;;;;;2.30;1.40;;;12.50;28.20;;;;;;4878147;29;20943;-50
2022/09/02 02:14:48;;;;;;;1.87;1.70;;;12.50;24.00;;;;;;4875875;29;20261;-50
2022/09/02 02:17:14;;;;;;;2.00;1.60;;;12.50;8.00;;;;;;4878906;29;20212;-51
2022/09/02 02:19:39;;;;;;;2.60;1.67;;;12.50;13.30;;;;;;4869849;29;20193;-50
2022/09/02 02:22:05;;;;;;;1.60;1.50;;;12.50;20.60;;;;;;4871542;29;20715;-51
2022/09/02 02:24:31;;;;;;;1.63;1.50;;;12.50;17.20;;;;;;4878771;29;20655;-50
2022/09/02 02:26:56;;;;;;;2.57;1.50;;;12.50;15.20;;;;;;4877015;29;20244;-50
2022/09/02 02:29:22;;;;;;;4.87;1.63;;;12.50;10.40;;;;;;4878393;29;20204;-50
2022/09/02 02:31:49;;;;;;;1.60;1.47;;;12.50;1.00;;;;;;4878323;29;20703;-50
2022/09/02 02:34:14;;;;;;;2.60;1.60;;;12.40;1.00;;;;;;4868429;29;20240;-50
2022/09/02 02:36:41;;;;;;;2.73;1.40;;;12.40;10.40;;;;;;4873357;29;20500;-50
2022/09/02 02:39:08;;;;;;;2.10;1.53;;;12.40;13.50;;;;;;4877353;29;20460;-50
2022/09/02 02:41:35;;;;;;;2.20;1.90;;;12.40;16.40;;;;;;4878363;29;20437;-50
2022/09/02 02:44:02;;;;;;;1.70;1.60;;;12.40;39.70;;;;;;4877343;29;21050;-54
2022/09/02 02:46:29;;;;;;;1.97;1.67;;;12.30;56.60;;;;;;4878019;29;20451;-50
2022/09/02 02:48:58;;;;;;;1.77;1.57;;;12.30;51.30;;;;;;4877443;29;20448;-50
2022/09/02 02:51:24;;;;;;;2.17;1.60;;;12.30;58.60;;;;;;4871506;29;20456;-50
2022/09/02 02:53:49;;;;;;;7.10;1.43;;;12.30;57.60;;;;;;4877712;29;20440;-50
2022/09/02 02:56:15;;;;;;;1.53;1.43;;;12.30;73.70;;;;;;4861249;29;20682;-50
2022/09/02 02:58:41;;;;;;;1.80;1.70;;;12.20;84.30;;;;;;4872329;29;20193;-50
2022/09/02 03:01:07;;;;;;;2.50;1.60;;;12.20;99.90;;;;;;4860038;29;20185;-50
2022/09/02 03:03:32;;;;;;;1.67;1.57;;;12.20;99.90;;;;;;4872809;29;20184;-54
2022/09/02 03:05:58;;;;;;;1.80;1.50;;;12.10;99.90;;;;;;4877489;29;20264;-55
2022/09/02 03:08:25;;;;;;;3.00;1.40;;;12.00;99.90;;;;;;4877203;29;20991;-55
2022/09/02 03:10:53;;;;;;;1.70;1.60;;;12.00;99.90;;;;;;4877293;29;20508;-55
2022/09/02 03:13:20;;;;;;;1.57;1.47;;;11.90;99.90;;;;;;4877876;29;20465;-54
2022/09/02 03:15:46;;;;;;;2.50;1.40;;;11.80;99.90;;;;;;4877986;29;20453;-55
2022/09/02 03:18:12;;;;;;;1.80;1.70;;;11.70;99.90;;;;;;4876958;29;20966;-55
2022/09/02 03:20:40;;;;;;;1.70;1.60;;;11.60;99.90;;;;;;4878149;29;20531;-55
2022/09/02 03:23:06;;;;;;;2.40;1.43;;;11.50;99.90;;;;;;4876701;29;20452;-56
2022/09/02 03:25:33;;;;;;;2.60;1.80;;;11.40;99.90;;;;;;4877666;29;20445;-54
2022/09/02 03:28:00;;;;;;;1.70;1.60;;;11.40;99.90;;;;;;4877533;29;20763;-55
2022/09/02 03:30:28;;;;;;;1.60;1.50;;;11.30;99.90;;;;;;4876771;29;20444;-55
2022/09/02 03:32:55;;;;;;;3.13;1.80;;;11.30;99.90;;;;;;4872561;29;20509;-55
2022/09/02 03:35:22;;;;;;;3.93;1.90;;;11.30;1.00;;;;;;4876436;29;20811;-55
2022/09/02 03:37:49;;;;;;;1.93;1.80;;;11.30;1.00;;;;;;4876931;29;20472;-54
2022/09/02 03:40:18;;;;;;;2.77;1.97;;;11.30;1.00;;;;;;4877460;29;20496;-54
2022/09/02 03:42:44;;;;;;;1.70;1.60;;;11.30;1.00;;;;;;4877620;29;20448;-55
2022/09/02 03:45:11;;;;;;;2.13;1.93;;;11.30;1.00;;;;;;4876256;29;20777;-55
2022/09/02 03:47:42;;;;;;;1.90;1.63;;;11.30;1.00;;;;;;4875844;29;20203;-55
2022/09/02 03:50:08;;;;;;;2.90;1.60;;;11.30;1.00;;;;;;4875021;29;20456;-57
2022/09/02 03:52:35;;;;;;;2.60;1.60;;;11.20;1.00;;;;;;4861748;29;20461;-52
2022/09/02 03:55:02;;;;;;;2.03;1.60;;;11.10;1.00;;;;;;4876856;29;20437;-55
2022/09/02 03:57:27;;;;;;;2.20;2.00;;;11.10;1.00;;;;;;4877416;29;20943;-55
2022/09/02 03:59:53;;;;;;;1.80;1.70;;;11.00;1.00;;;;;;4876539;29;20456;-54
2022/09/02 04:02:19;;;;;;;2.17;1.93;;;11.00;99.90;;;;;;4875986;29;20650;-54
2022/09/02 04:04:44;;;;;;;2.37;2.00;;;10.90;99.90;;;;;;4875609;29;20192;-55
2022/09/02 04:07:10;;;;;;;2.10;1.70;;;10.90;99.90;;;;;;4876146;29;20307;-55
2022/09/02 04:09:36;;;;;;;3.17;2.10;;;10.80;99.90;;;;;;4877061;29;20196;-54
2022/09/02 04:12:03;;;;;;;1.93;1.83;;;10.70;99.90;;;;;;4877316;29;20267;-54
2022/09/02 04:14:29;;;;;;;2.60;1.90;;;10.70;99.90;;;;;;4894547;29;20200;-54
2022/09/02 04:16:55;;;;;;;2.17;1.97;;;10.70;99.90;;;;;;4877024;29;20492;-53
2022/09/02 04:19:20;;;;;;;3.10;2.37;;;10.70;99.90;;;;;;4876918;29;20180;-55
2022/09/02 04:21:46;;;;;;;2.20;2.00;;;10.60;1.00;;;;;;4876502;29;20528;-54
2022/09/02 04:24:12;;;;;;;2.20;2.10;;;10.60;1.00;;;;;;4877227;29;20223;-54
2022/09/02 04:26:38;;;;;;;1.93;1.83;;;10.60;1.00;;;;;;4887599;29;20208;-56
2022/09/02 04:29:05;;;;;;;2.83;2.00;;;10.60;1.00;;;;;;4882819;29;20200;-55
2022/09/02 04:31:31;;;;;;;3.53;2.47;;;10.60;99.90;;;;;;4877122;29;20449;-54
2022/09/02 04:33:57;;;;;;;2.60;1.80;;;10.60;99.90;;;;;;4877988;29;21198;-54
2022/09/02 04:36:24;;;;;;;1.80;1.60;;;10.60;99.90;;;;;;4877059;29;20251;-54
2022/09/02 04:38:50;;;;;;;2.40;2.20;;;10.60;7.90;;;;;;4887772;29;20930;-55
2022/09/02 04:41:21;;;;;;;1.93;1.73;;;10.60;1.00;;;;;;4877344;29;20429;-55
2022/09/02 04:43:51;;;;;;;2.30;2.10;;;10.60;1.00;;;;;;4876568;29;21118;-54
2022/09/02 04:46:17;;;;;;;2.00;1.90;;;10.50;1.00;;;;;;4877844;29;20432;-55
2022/09/02 04:48:44;;;;;;;6.03;2.17;;;10.50;1.00;;;;;;4877550;29;20922;-53
2022/09/02 04:51:17;;;;;;;2.30;2.10;;;10.50;75.70;;;;;;4877222;29;20436;-54
2022/09/02 04:53:43;;;;;;;4.93;2.10;;;10.40;99.90;;;;;;4877918;29;20405;-54
2022/09/02 04:56:13;;;;;;;2.17;2.03;;;10.50;99.90;;;;;;4876743;29;20528;-63
2022/09/02 04:58:40;;;;;;;2.53;2.33;;;10.50;99.90;;;;;;4877154;29;20456;-54
2022/09/02 05:01:07;;;;;;;2.00;1.80;;;10.50;1.00;;;;;;4877288;29;20507;-54
2022/09/02 05:03:33;;;;;;;2.30;2.10;;;10.50;1.00;;;;;;4877354;29;20402;-54
2022/09/02 05:06:05;;;;;;;2.53;2.23;;;10.60;1.00;;;;;;4877205;29;20892;-54
2022/09/02 05:08:32;;;;;;;3.63;2.60;;;10.60;1.00;;;;;;4877497;29;20188;-54
2022/09/02 05:10:57;;;;;;;2.50;2.23;;;10.60;1.00;;;;;;4875789;29;20542;-55
2022/09/02 05:13:24;;;;;;;2.60;2.40;;;10.70;1.00;;;;;;4876149;29;20448;-55
2022/09/02 05:15:51;;;;;;;7.27;2.20;;;10.80;99.90;;;;;;4892113;29;20432;-54
2022/09/02 05:18:16;;;;;;;2.50;2.30;;;10.90;99.90;;;;;;4882412;29;20488;-54
2022/09/02 05:20:42;;;;;;;2.93;2.40;;;11.00;90.40;;;;;;4874408;29;20916;-54
2022/09/02 05:23:11;;;;;;;2.90;2.60;;;11.20;1.00;;;;;;4880374;29;20173;-54
2022/09/02 05:25:38;;;;;;;3.27;2.97;;;11.40;92.60;;;;;;4879382;29;20200;-55
2022/09/02 05:28:05;;;;;;;4.07;2.53;;;11.50;99.90;;;;;;4861609;29;20815;-54
2022/09/02 05:30:31;;;;;;;2.90;2.40;;;11.50;99.90;;;;;;4868696;29;20912;-56
2022/09/02 05:32:57;;;;;;;4.27;2.57;;;11.60;28.90;;;;;;4862549;29;20475;-54
2022/09/02 05:35:22;;;;;;;3.63;2.30;;;11.60;1.00;;;;;;4874193;29;20449;-55
2022/09/02 05:37:48;;;;;;;2.37;2.17;;;11.70;1.00;;;;;;4878522;29;21247;-56
2022/09/02 05:40:14;;;;;;;5.23;2.20;;;11.80;1.00;;;;;;4879540;29;20245;-54
2022/09/02 05:42:39;;;;;;;3.60;2.60;;;11.80;1.00;;;;;;4879367;29;20176;-55
2022/09/02 05:45:07;;;;;;;6.77;2.30;;;11.90;1.00;;;;;;4879458;29;20533;-55
2022/09/02 05:47:34;;;;;;;2.63;2.30;;;12.00;99.90;;;;;;4880167;29;20193;-54
2022/09/02 05:50:00;;;;;;;4.20;2.27;;;12.10;99.90;;;;;;4879962;29;20439;-54
2022/09/02 05:52:26;;;;;;;3.33;2.30;;;12.30;99.90;;;;;;4875807;29;20476;-55
2022/09/02 05:54:53;;;;;;;2.00;1.90;;;12.30;99.90;;;;;;4879417;29;20429;-55
2022/09/02 05:57:20;;;;;;;3.47;2.20;;;12.50;30.50;;;;;;4878318;29;20492;-55
2022/09/02 05:59:47;;;;;;;2.63;1.83;;;12.60;1.00;;;;;;4872962;29;20461;-55
2022/09/02 06:02:16;;;;;;;4.50;2.13;;;12.60;1.00;;;;;;4875576;29;20830;-54
2022/09/02 06:04:47;;;;;;;2.37;2.03;;;12.70;1.00;;;;;;4875797;29;20476;-55
2022/09/02 06:07:15;;;;;;;3.40;2.00;;;12.90;1.00;;;;;;4878753;29;20425;-55
2022/09/02 06:09:43;;;;;;;6.37;1.93;;;13.10;1.00;;;;;;4879497;29;20444;-55
2022/09/02 06:12:10;;;;;;;3.37;2.03;;;13.40;1.00;;;;;;4879689;29;20770;-54
2022/09/02 06:14:36;;;;;;;3.13;2.10;;;13.70;1.00;;;;;;4879453;29;20435;-56
2022/09/02 06:17:03;;;;;;;3.40;1.90;;;13.90;1.00;;;;;;4878064;29;20476;-55
2022/09/02 06:19:31;;;;;;;9.30;1.70;;;14.20;1.00;;;;;;4876524;29;20537;-55
2022/09/02 06:21:59;;;;;;;2.53;2.03;;;14.30;1.00;;;;;;4880566;29;20452;-56
2022/09/02 06:24:25;;;;;;;3.23;1.80;;;14.50;1.00;;;;;;4877512;29;20532;-56
2022/09/02 06:26:52;;;;;;;2.27;2.07;;;14.70;1.00;;;;;;4890112;29;20499;-56
2022/09/02 06:29:18;;;;;;;2.97;1.73;;;15.00;1.00;;;;;;4901848;29;20530;-57
2022/09/02 06:31:46;;;;;;;2.80;1.77;;;15.10;1.00;;;;;;4916932;29;20412;-55
2022/09/02 06:34:15;;;;;;;5.37;1.50;;;15.40;1.00;;;;;;4878868;29;20507;-55
2022/09/02 06:36:42;;;;;;;3.10;2.40;;;15.60;99.90;;;;;;4899761;29;20463;-55
2022/09/02 06:39:11;;;;;;;1.83;1.73;;;15.80;99.90;;;;;;4899185;29;20439;-56
2022/09/02 06:41:38;;;;;;;2.00;1.67;;;16.00;99.90;;;;;;4897406;29;20434;-56
2022/09/02 06:44:06;;;;;;;1.50;1.40;;;16.20;99.90;;;;;;4896657;29;21002;-56
2022/09/02 06:46:34;;;;;;;7.90;2.37;;;16.30;99.90;;;;;;4895763;29;20439;-55
2022/09/02 06:49:00;;;;;;;2.70;1.70;;;16.60;99.90;;;;;;4897915;29;20476;-56
2022/09/02 06:51:32;;;;;;;2.03;1.60;;;16.80;99.90;;;;;;4894972;29;20471;-56
2022/09/02 06:53:59;;;;;;;2.20;1.53;;;17.00;99.90;;;;;;4897551;29;20841;-56
2022/09/02 06:56:25;;;;;;;3.37;1.63;;;17.20;99.90;;;;;;4896194;29;20438;-57
2022/09/02 06:58:51;;;;;;;4.77;1.63;;;17.40;99.90;;;;;;4896317;29;20432;-57
2022/09/02 07:01:25;;;;;;;2.43;1.57;;;17.80;99.90;;;;;;4894345;29;20447;-56
2022/09/02 07:06:38;;;;;;;1.63;1.40;;;18.20;99.90;;;;;;4899288;29;20450;-56
2022/09/02 07:09:05;;;;;;;1.83;1.23;;;18.50;99.90;;;;;;4898023;29;20511;-55
2022/09/02 07:11:31;;;;;;;4.27;1.53;;;18.70;99.90;;;;;;4880605;29;20489;-56
2022/09/02 07:14:00;;;;;;;3.57;1.30;;;18.90;99.90;;;;;;4891501;29;20448;-56
2022/09/02 07:16:28;;;;;;;7.00;1.63;;;19.10;99.90;;;;;;4893002;29;20761;-57
2022/09/02 07:18:54;;;;;;;8.40;1.30;;;19.30;99.90;;;;;;4896727;29;20915;-56
2022/09/02 07:21:19;;;;;;;1.50;1.40;;;19.60;99.90;;;;;;4895915;29;20440;-54
2022/09/02 07:23:45;;;;;;;2.70;1.50;;;19.90;99.90;;;;;;4895181;29;20459;-56
2022/09/02 07:26:13;;;;;;;1.70;1.50;;;20.10;99.90;;;;;;4896413;29;20855;-57
2022/09/02 07:28:39;;;;;;;2.17;1.40;;;20.50;99.90;;;;;;4874347;29;20236;-56
2022/09/02 07:31:13;;;;;;;3.00;1.70;;;20.80;99.90;;;;;;4875097;29;20445;-57
2022/09/02 07:33:39;;;;;;;3.83;1.20;;;21.00;99.90;;;;;;4867227;29;20741;-56
2022/09/02 07:36:06;;;;;;;2.50;1.40;;;21.20;99.90;;;;;;4873254;29;20452;-57
2022/09/02 07:38:32;;;;;;;4.63;1.40;;;21.40;99.90;;;;;;4876489;29;20469;-57
2022/09/02 07:40:59;;;;;;;4.40;1.53;;;21.60;99.90;;;;;;4876206;29;20455;-59
2022/09/02 07:43:26;;;;;;;1.73;1.30;;;21.60;99.90;;;;;;4877882;29;20418;-58
2022/09/02 07:45:54;;;;;;;4.40;1.93;;;21.80;99.90;;;;;;4875989;29;20516;-57
2022/09/02 07:48:21;;;;;;;2.03;1.77;;;22.10;99.90;;;;;;4888435;29;20423;-57
2022/09/02 07:50:47;;;;;;;17.20;10.90;;;22.20;99.90;;;;;;4882844;29;20448;-57
2022/09/02 07:53:15;;;;;;;3.90;1.20;;;22.40;99.90;;;;;;4877167;29;20448;-57
2022/09/02 07:55:41;;;;;;;2.30;1.17;;;22.80;99.90;;;;;;4877231;29;20502;-57
2022/09/02 07:58:06;;;;;;;2.33;1.20;;;23.20;99.90;;;;;;4877901;29;20954;-55
2022/09/02 08:00:33;;;;;;;2.60;1.13;;;23.50;99.90;;;;;;4881126;29;21011;-56
2022/09/02 08:03:00;;;;;;;4.40;1.33;;;23.70;99.90;;;;;;4876986;29;20181;-56
2022/09/02 08:05:27;;;;;;;1.30;1.20;;;23.80;99.90;;;;;;4876962;29;20441;-57
2022/09/02 08:07:53;;;;;;;3.10;1.20;;;23.90;99.90;;;;;;4877581;29;20485;-57
2022/09/02 08:10:19;;;;;;;1.53;1.30;;;24.20;99.90;;;;;;4877494;29;20528;-58
2022/09/02 08:12:46;;;;;;;2.77;1.07;;;24.40;99.90;;;;;;4877849;29;20192;-59
2022/09/02 08:15:12;;;;;;;4.00;1.23;;;24.50;99.90;;;;;;4876576;29;20441;-57
2022/09/02 08:17:43;;;;;;;1.03;0.90;;;24.70;99.90;;;;;;4877626;29;21329;-57
2022/09/02 08:20:13;;;;;;;3.47;1.20;;;24.80;99.90;;;;;;4858209;29;20474;-53
2022/09/02 08:22:39;;;;;;;1.73;1.20;;;25.20;99.90;;;;;;4866954;29;20841;-57
2022/09/02 08:25:06;;;;;;;1.10;1.00;;;25.40;99.90;;;;;;4876603;29;20428;-56
2022/09/02 08:27:33;;;;;;;1.43;0.90;;;25.40;99.90;;;;;;4876715;29;20511;-57
2022/09/02 08:30:00;;;;;;;1.10;1.00;;;25.40;99.90;;;;;;4877786;29;20954;-58
2022/09/02 08:32:26;;;;;;;2.10;1.00;;;25.20;99.90;;;;;;4879156;29;20508;-60
2022/09/02 08:34:52;;;;;;;1.50;1.00;;;25.30;99.90;;;;;;4862061;29;20436;-57
2022/09/02 08:37:18;;;;;;;1.60;1.30;;;25.40;99.90;;;;;;4877080;29;20460;-58
2022/09/02 08:39:44;;;;;;;1.20;1.10;;;25.40;99.90;;;;;;4877387;29;20192;-57
2022/09/02 08:42:34;;;;;;;1.10;1.00;;;25.40;99.90;;;;;;4876787;29;20185;-58
2022/09/02 08:45:24;;;;;;;1.50;1.30;;;25.40;99.90;;;;;;4874225;29;20930;-58
2022/09/02 08:48:12;;;;;;;2.93;1.80;;;25.60;99.90;;;;;;4876260;29;20456;-57
2022/09/02 08:50:43;;;;;;;10.20;2.43;;;25.60;99.90;;;;;;4859672;29;20456;-59
2022/09/02 08:53:45;;;;;;;8.83;1.70;;;25.60;99.90;;;;;;4878739;29;20437;-59
2022/09/02 08:56:15;;;;;;;4.73;1.10;;;25.60;99.90;;;;;;4877776;29;20476;-58
2022/09/02 08:58:43;;;;;;;9.87;1.10;;;25.90;99.90;;;;;;4863544;29;20469;-58
2022/09/02 09:01:18;;;;;;;1.13;1.00;;;26.10;99.90;;;;;;4871428;29;20475;-58
2022/09/02 09:04:05;;;;;;;1.03;1.00;;;26.00;99.90;;;;;;4880413;29;20516;-59
2022/09/02 09:06:37;;;;;;;1.23;1.13;;;25.60;99.90;;;;;;4878626;29;20472;-57
2022/09/02 09:09:19;;;;;;;3.00;1.30;;;25.40;99.90;;;;;;4879730;29;20849;-57
2022/09/02 09:11:48;;;;;;;3.03;1.00;;;25.40;99.90;;;;;;4863411;29;20466;-57
2022/09/02 09:14:30;;;;;;;1.23;1.13;;;25.50;99.90;;;;;;4879592;29;20475;-58
2022/09/02 09:16:59;;;;;;;1.20;0.90;;;25.60;99.90;;;;;;4878847;29;20556;-58
2022/09/02 09:19:31;;;;;;;1.00;0.97;;;25.50;99.90;;;;;;4877501;29;20858;-57
2022/09/02 09:22:02;;;;;;;1.20;1.00;;;25.40;99.90;;;;;;4876039;29;20456;-58
2022/09/02 09:24:43;;;;;;;1.20;1.10;;;25.30;99.90;;;;;;4861931;29;20974;-58
2022/09/02 09:27:15;;;;;;;3.20;1.30;;;25.20;99.90;;;;;;4885159;29;20850;-57
2022/09/02 09:29:41;;;;;;;4.23;1.27;;;25.00;99.90;;;;;;4887434;29;20531;-58
2022/09/02 09:32:26;;;;;;;2.60;1.40;;;24.80;99.90;;;;;;4881974;29;20931;-57
2022/09/02 09:34:52;;;;;;;4.40;1.20;;;24.40;99.90;;;;;;4877408;29;20255;-58
2022/09/02 09:37:32;;;;;;;1.30;1.20;;;24.00;99.90;;;;;;4879471;29;20931;-57
2022/09/02 09:39:57;;;;;;;2.03;1.30;;;23.70;99.90;;;;;;4879853;29;20192;-58
2022/09/02 09:42:35;;;;;;;4.30;1.30;;;23.40;99.90;;;;;;4878662;29;20448;-58
2022/09/02 09:45:20;;;;;;;2.50;1.20;;;23.10;99.90;;;;;;4879689;29;20188;-56
2022/09/02 09:48:06;;;;;;;1.30;1.20;;;22.90;99.90;;;;;;4879699;29;20912;-58
2022/09/02 09:50:32;;;;;;;3.63;1.10;;;22.70;99.90;;;;;;4879615;29;20821;-58
2022/09/02 09:53:21;;;;;;;1.40;1.30;;;22.50;99.90;;;;;;4878734;29;20955;-58
2022/09/02 09:55:52;;;;;;;2.43;1.27;;;22.20;99.90;;;;;;4895830;29;20219;-58
2022/09/02 09:58:18;;;;;;;1.67;1.30;;;22.20;99.90;;;;;;4897540;29;20479;-53
2022/09/02 10:00:44;;;;;;;6.30;1.20;;;22.10;99.90;;;;;;4898222;29;20427;-53
2022/09/02 10:03:20;;;;;;;2.97;1.10;;;22.30;99.90;;;;;;4896123;29;20439;-53
2022/09/02 10:05:46;;;;;;;3.53;1.50;;;22.30;99.90;;;;;;4893492;29;20199;-53
2022/09/02 10:08:15;;;;;;;1.90;1.40;;;22.40;99.90;;;;;;4896986;29;20454;-52
2022/09/02 10:10:55;;;;;;;3.30;1.10;;;22.50;99.90;;;;;;4898252;29;20172;-53
2022/09/02 10:13:24;;;;;;;2.87;1.13;;;22.70;99.90;;;;;;4897735;29;20455;-53
2022/09/02 10:16:13;;;;;;;2.13;1.27;;;22.80;99.90;;;;;;4893659;29;20454;-53
2022/09/02 10:19:04;;;;;;;3.83;1.43;;;22.40;99.90;;;;;;4890238;29;20484;-52
2022/09/02 10:21:58;;;;;;;6.73;1.23;;;22.60;99.90;;;;;;4884220;29;20446;-52
2022/09/02 10:24:52;;;;;;;2.90;1.60;;;23.00;99.90;;;;;;4884422;29;20508;-52
2022/09/02 10:27:54;;;;;;;2.50;1.53;;;23.60;99.90;;;;;;4880084;29;20504;-52
2022/09/02 10:30:23;;;;;;;1.20;1.10;;;24.30;99.90;;;;;;4877500;29;20446;-53
2022/09/02 10:32:51;;;;;;;1.27;1.17;;;24.90;99.90;;;;;;4879116;29;20421;-52
2022/09/02 10:35:44;;;;;;;2.70;1.13;;;25.20;99.90;;;;;;4877860;29;20468;-53
2022/09/02 10:38:15;;;;;;;1.93;1.30;;;25.80;99.90;;;;;;4878854;29;20460;-53
2022/09/02 10:40:45;;;;;;;10.43;1.50;;;26.40;99.90;;;;;;4878047;29;20468;-52
2022/09/02 10:43:50;;;;;;;3.40;1.10;;;26.90;99.90;;;;;;4859995;29;20449;-53
2022/09/02 10:46:23;;;;;;;1.30;1.20;;;27.30;99.90;;;;;;4852986;29;20444;-53
2022/09/02 10:49:12;;;;;;;1.40;1.30;;;27.60;99.90;;;;;;4876817;29;20957;-53
2022/09/02 10:51:38;;;;;;;1.33;1.13;;;28.10;99.90;;;;;;4878237;29;20920;-53
2022/09/02 10:54:25;;;;;;;3.93;1.23;;;28.90;99.90;;;;;;4876878;29;20461;-52
2022/09/02 10:57:22;;;;;;;3.43;1.20;;;29.50;99.90;;;;;;4878350;29;20929;-52
2022/09/02 11:00:00;;;;;;;2.90;1.00;;;29.80;99.90;;;;;;4878523;29;20409;-53
2022/09/02 11:02:34;;;;;;;1.37;1.13;;;29.90;99.90;;;;;;4877695;29;20518;-52
2022/09/02 11:05:24;;;;;;;2.23;1.00;;;30.10;99.90;;;;;;4877752;29;20768;-52
2022/09/02 11:08:04;;;;;;;2.17;1.10;;;30.70;99.90;;;;;;4860894;29;20449;-53
2022/09/02 11:10:36;;;;;;;1.87;1.20;;;31.10;99.90;;;;;;4878339;29;20744;-53
2022/09/02 11:13:10;;;;;;;2.00;1.20;;;31.40;99.90;;;;;;4877192;29;20534;-53
2022/09/02 11:15:38;;;;;;;1.20;1.10;;;30.30;99.90;;;;;;4877348;29;20443;-53
2022/09/02 11:18:31;;;;;;;2.50;1.17;;;30.20;99.90;;;;;;4877070;29;20570;-52
2022/09/02 11:21:09;;;;;;;1.40;1.00;;;30.40;99.90;;;;;;4876747;29;20441;-52
2022/09/02 11:23:48;;;;;;;8.20;1.50;;;31.00;99.90;;;;;;4877402;29;20440;-52
2022/09/02 11:26:17;;;;;;;5.80;1.10;;;31.40;99.90;;;;;;4877171;29;20888;-57
2022/09/02 11:29:01;;;;;;;4.00;1.13;;;31.30;99.90;;;;;;4876882;29;20476;-53
2022/09/02 11:31:50;;;;;;;2.20;1.40;;;30.70;99.90;;;;;;4877026;29;20451;-53
2022/09/02 11:34:18;;;;;;;2.03;1.10;;;29.50;99.90;;;;;;4849920;29;20432;-56
2022/09/02 11:36:44;;;;;;;1.60;1.30;;;29.10;99.90;;;;;;4877203;29;20540;-52
2022/09/02 11:39:10;;;;;;;2.80;1.10;;;28.90;99.90;;;;;;4876257;29;21014;-53
2022/09/02 11:41:59;;;;;;;2.50;1.17;;;29.50;99.90;;;;;;4876792;29;20209;-53
2022/09/02 11:44:40;;;;;;;1.80;1.23;;;29.70;99.90;;;;;;4875778;29;20201;-53
2022/09/02 11:47:17;;;;;;;1.67;1.10;;;29.70;99.90;;;;;;4877007;29;20483;-53
2022/09/02 11:50:04;;;;;;;1.30;1.20;;;29.40;99.90;;;;;;4876726;29;20437;-52
2022/09/02 11:53:00;;;;;;;1.37;1.17;;;29.70;99.90;;;;;;4875036;29;20572;-53
2022/09/02 11:55:28;;;;;;;2.40;0.90;;;30.50;99.90;;;;;;4873269;29;20452;-53
2022/09/02 11:57:56;;;;;;;3.63;1.30;;;30.70;99.90;;;;;;4859654;29;21027;-58
2022/09/02 12:00:57;;;;;;;4.30;1.10;;;29.90;99.90;;;;;;4876836;29;20421;-52
2022/09/02 12:03:29;;;;;;;6.53;1.30;;;29.50;99.90;;;;;;4875797;29;20440;-53
2022/09/02 12:06:08;;;;;;;2.93;1.20;;;29.70;99.90;;;;;;4877230;29;20405;-53
2022/09/02 12:08:35;;;;;;;1.47;1.00;;;29.50;99.90;;;;;;4875806;29;20448;-52
2022/09/02 12:11:05;;;;;;;3.57;1.40;;;29.00;99.90;;;;;;4876295;29;20457;-57
2022/09/02 12:13:35;;;;;;;2.03;1.00;;;29.70;99.90;;;;;;4877313;29;20509;-52
2022/09/02 12:16:19;;;;;;;1.53;1.03;;;30.60;99.90;;;;;;4877318;29;20425;-54
2022/09/02 12:18:52;;;;;;;1.20;1.10;;;30.90;99.90;;;;;;4876349;29;20996;-53
2022/09/02 12:21:20;;;;;;;1.13;1.03;;;30.80;99.90;;;;;;4875307;29;20469;-53
2022/09/02 12:23:52;;;;;;;1.30;1.00;;;31.00;99.90;;;;;;4878903;29;20987;-52
2022/09/02 12:26:50;;;;;;;1.73;0.90;;;31.30;99.90;;;;;;4878509;29;20443;-53
2022/09/02 12:29:18;;;;;;;3.53;0.90;;;31.40;99.90;;;;;;4882614;29;20465;-53
2022/09/02 12:31:46;;;;;;;1.57;1.10;;;31.70;99.90;;;;;;4879552;29;20621;-53
2022/09/02 12:34:21;;;;;;;1.57;1.00;;;31.80;99.90;;;;;;4874855;29;20460;-51
2022/09/02 12:36:46;;;;;;;7.17;1.27;;;32.00;99.90;;;;;;4878410;29;20507;-51
2022/09/02 12:39:24;;;;;;;2.73;0.90;;;32.00;99.90;;;;;;4879361;29;20923;-52
2022/09/02 12:42:08;;;;;;;1.47;0.97;;;31.80;99.90;;;;;;4880496;29;20192;-52
2022/09/02 12:44:34;;;;;;;3.87;1.10;;;31.20;99.90;;;;;;4880765;29;20412;-51
2022/09/02 12:47:25;;;;;;;1.27;0.97;;;31.10;99.90;;;;;;4880734;29;20420;-50
2022/09/02 12:50:06;;;;;;;3.00;1.10;;;31.10;99.90;;;;;;4877363;29;20185;-51
2022/09/02 12:52:35;;;;;;;3.13;1.13;;;31.60;99.90;;;;;;4880391;29;20424;-52
2022/09/02 12:55:20;;;;;;;1.90;1.40;;;31.30;99.90;;;;;;4880474;29;20424;-52
2022/09/02 12:57:51;;;;;;;4.63;1.30;;;31.30;99.90;;;;;;4878685;29;20541;-51
2022/09/02 13:00:34;;;;;;;2.37;0.93;;;31.50;99.90;;;;;;4878506;29;20469;-51
2022/09/02 13:03:09;;;;;;;3.63;1.00;;;31.80;99.90;;;;;;4875075;29;20448;-52
2022/09/02 13:06:00;;;;;;;5.20;1.10;;;31.90;99.90;;;;;;4861691;29;20452;-51
2022/09/02 13:08:50;;;;;;;0.80;0.80;;;31.50;99.90;;;;;;4861771;29;20406;-51
2022/09/02 13:11:40;;;;;;;1.23;1.10;;;31.70;99.90;;;;;;4861509;29;20413;-51